createdAt,value
2022-08-04T00:00:12.949Z,99956.02
2022-08-04T00:01:22.472Z,99956.02
2022-08-04T00:02:29.510Z,99953.73
2022-08-04T00:03:45.616Z,99954.31
2022-08-04T00:04:55.714Z,99950.38
2022-08-04T00:06:08.429Z,99950.38
2022-08-04T00:07:15.413Z,99960.64
2022-08-04T00:08:37.233Z,99959.58
2022-08-04T00:09:49.925Z,99959.58
2022-08-04T00:10:57.388Z,99954.55
2022-08-04T00:12:03.501Z,99954.55
2022-08-04T00:13:09.709Z,99957.67
2022-08-04T00:14:21.498Z,99957.67
2022-08-04T00:15:26.541Z,99953.05
2022-08-04T00:16:37.904Z,99944.67
2022-08-04T00:17:47.988Z,99944.67
2022-08-04T00:18:58.095Z,99952.22
2022-08-04T00:20:05.841Z,99949.94
2022-08-04T00:21:14.750Z,99949.94
2022-08-04T00:22:22.017Z,99946.58
2022-08-04T00:23:27.678Z,99952.22
2022-08-04T00:24:35.786Z,99947.84
2022-08-04T00:25:41.198Z,99947.84
2022-08-04T00:26:47.084Z,99951.39
2022-08-04T00:27:52.120Z,99947.21
2022-08-04T00:28:59.953Z,99947.21
2022-08-04T00:30:08.850Z,99957.67
2022-08-04T00:31:14.935Z,99950.33
2022-08-04T00:32:31.102Z,99953.92
2022-08-04T00:33:59.707Z,99953.92
2022-08-04T00:34:38.234Z,99956.45
2022-08-04T00:35:42.492Z,99958.98
2022-08-04T00:36:46.582Z,99968.19
2022-08-04T00:37:51.302Z,99959.81
2022-08-04T00:38:55.779Z,99959.81
2022-08-04T00:40:01.591Z,99965.25
2022-08-04T00:41:10.431Z,99957.30
2022-08-04T00:42:35.918Z,99960.44
2022-08-04T00:43:46.032Z,99960.44
2022-08-04T00:45:19.372Z,99958.80
2022-08-04T00:46:46.867Z,99955.20
2022-08-04T00:48:00.679Z,99955.20
2022-08-04T00:49:31.303Z,99968.63
2022-08-04T00:50:44.299Z,99967.38
2022-08-04T00:52:32.508Z,99967.38
2022-08-04T00:53:13.818Z,99972.59
2022-08-04T00:54:23.577Z,99976.81
2022-08-04T00:55:45.045Z,99976.81
2022-08-04T00:57:34.038Z,99983.96
2022-08-04T00:59:01.540Z,99983.96
2022-08-04T01:00:11.972Z,99979.55
2022-08-04T01:01:41.524Z,99979.55
2022-08-04T01:03:03.463Z,99974.14
2022-08-04T01:04:26.754Z,99980.41
2022-08-04T01:05:48.913Z,99980.41
2022-08-04T01:06:58.847Z,99910.56
2022-08-04T01:08:20.624Z,99910.56
2022-08-04T01:09:36.585Z,99978.13
2022-08-04T01:10:52.398Z,99981.28
2022-08-04T01:12:05.326Z,99981.28
2022-08-04T01:13:15.167Z,99978.31
2022-08-04T01:14:26.911Z,99989.81
2022-08-04T01:15:59.419Z,99996.13
2022-08-04T01:16:42.638Z,99994.23
2022-08-04T01:18:01.425Z,99994.23
2022-08-04T01:19:08.348Z,99989.17
2022-08-04T01:20:15.980Z,99991.70
2022-08-04T01:21:49.881Z,99992.97
2022-08-04T01:23:05.284Z,99991.11
2022-08-04T01:24:39.408Z,99975.36
2022-08-04T01:25:50.731Z,99976.19
2022-08-04T01:27:14.192Z,99986.84
2022-08-04T01:28:24.032Z,99986.84
2022-08-04T01:29:47.051Z,99415.23
2022-08-04T01:30:45.657Z,99988.14
2022-08-04T01:32:04.408Z,99992.30
2022-08-04T01:33:11.365Z,99995.02
2022-08-04T01:34:20.089Z,99995.02
2022-08-04T01:35:47.517Z,99992.09
2022-08-04T01:36:44.737Z,99988.53
2022-08-04T01:37:58.679Z,99988.53
2022-08-04T01:39:04.168Z,99986.05
2022-08-04T01:40:11.873Z,99981.81
2022-08-04T01:41:19.655Z,99981.81
2022-08-04T01:42:32.020Z,99977.00
2022-08-04T01:43:37.064Z,99977.00
2022-08-04T01:44:41.729Z,99987.45
2022-08-04T01:45:48.690Z,99982.63
2022-08-04T01:46:54.035Z,99985.36
2022-08-04T01:47:58.758Z,99984.92
2022-08-04T01:49:08.413Z,99988.27
2022-08-04T01:50:14.442Z,99983.66
2022-08-04T01:51:20.445Z,99986.17
2022-08-04T01:52:28.755Z,99986.17
2022-08-04T01:53:38.608Z,99988.67
2022-08-04T01:54:43.610Z,99988.67
2022-08-04T01:55:54.139Z,99985.75
2022-08-04T01:57:36.894Z,99977.19
2022-08-04T01:58:13.599Z,99977.19
2022-08-04T01:59:17.429Z,99986.81
2022-08-04T02:00:29.925Z,99986.81
2022-08-04T02:01:37.124Z,99979.91
2022-08-04T02:02:41.561Z,99985.36
2022-08-04T02:04:20.113Z,99975.29
2022-08-04T02:04:52.402Z,99984.54
2022-08-04T02:06:06.580Z,99984.54
2022-08-04T02:07:18.663Z,99977.87
2022-08-04T02:08:34.460Z,99983.31
2022-08-04T02:09:54.390Z,99976.58
2022-08-04T02:11:14.894Z,99976.58
2022-08-04T02:12:51.879Z,99969.03
2022-08-04T02:14:11.023Z,99970.50
2022-08-04T02:15:32.802Z,99966.52
2022-08-04T02:16:52.453Z,99966.95
2022-08-04T02:18:05.915Z,99967.78
2022-08-04T02:19:21.715Z,99967.78
2022-08-04T02:20:32.875Z,99961.69
2022-08-04T02:21:42.110Z,99967.97
2022-08-04T02:22:47.238Z,99967.97
2022-08-04T02:23:57.188Z,99964.24
2022-08-04T02:25:11.525Z,99965.25
2022-08-04T02:26:22.393Z,99965.25
2022-08-04T02:27:27.313Z,99969.46
2022-08-04T02:28:52.585Z,99960.45
2022-08-04T02:30:01.530Z,99955.62
2022-08-04T02:31:20.434Z,99948.95
2022-08-04T02:32:29.036Z,99948.95
2022-08-04T02:33:36.068Z,99957.51
2022-08-04T02:34:45.883Z,99965.92
2022-08-04T02:35:52.999Z,99965.92
2022-08-04T02:37:05.933Z,99962.33
2022-08-04T02:38:13.664Z,99964.42
2022-08-04T02:39:22.291Z,99963.18
2022-08-04T02:40:29.063Z,99963.18
2022-08-04T02:41:34.380Z,99962.33
2022-08-04T02:42:38.797Z,99962.33
2022-08-04T02:43:51.040Z,99964.66
2022-08-04T02:44:53.508Z,99964.66
2022-08-04T02:45:59.061Z,99960.86
2022-08-04T02:47:04.380Z,99962.77
2022-08-04T02:48:30.558Z,99960.47
2022-08-04T02:49:21.181Z,99960.47
2022-08-04T02:50:29.060Z,99960.47
2022-08-04T02:51:39.326Z,99958.58
2022-08-04T02:52:45.776Z,99962.33
2022-08-04T02:53:55.676Z,99958.58
2022-08-04T02:55:03.098Z,99963.63
2022-08-04T02:56:09.563Z,99963.39
2022-08-04T02:57:15.103Z,99963.39
2022-08-04T02:58:22.394Z,99972.20
2022-08-04T02:59:28.028Z,99972.20
2022-08-04T03:00:33.154Z,99966.16
2022-08-04T03:01:38.301Z,99957.75
2022-08-04T03:02:52.490Z,99963.39
2022-08-04T03:04:30.752Z,99964.02
2022-08-04T03:05:51.909Z,99965.48
2022-08-04T03:07:16.277Z,99964.66
2022-08-04T03:08:51.689Z,99967.14
2022-08-04T03:09:59.957Z,99967.14
2022-08-04T03:11:12.685Z,99964.24
2022-08-04T03:12:48.550Z,99964.01
2022-08-04T03:14:28.260Z,99962.74
2022-08-04T03:15:49.863Z,99966.53
2022-08-04T03:17:18.979Z,99965.27
2022-08-04T03:18:34.982Z,99969.70
2022-08-04T03:20:14.892Z,99961.08
2022-08-04T03:21:21.922Z,99965.91
2022-08-04T03:23:12.157Z,99965.91
2022-08-04T03:24:26.830Z,99969.70
2022-08-04T03:26:03.510Z,99966.92
2022-08-04T03:27:12.126Z,99966.92
2022-08-04T03:28:37.748Z,99978.06
2022-08-04T03:29:50.469Z,99978.06
2022-08-04T03:31:06.460Z,99978.06
2022-08-04T03:32:16.116Z,99977.43
2022-08-04T03:33:47.129Z,99969.86
2022-08-04T03:35:22.967Z,99974.08
2022-08-04T03:36:40.210Z,99972.20
2022-08-04T03:38:06.354Z,99972.20
2022-08-04T03:39:46.645Z,99980.77
2022-08-04T03:41:12.667Z,99980.77
2022-08-04T03:42:51.890Z,99970.30
2022-08-04T03:44:04.972Z,99970.52
2022-08-04T03:45:26.927Z,99970.52
2022-08-04T03:46:50.391Z,99965.70
2022-08-04T03:48:03.269Z,99963.17
2022-08-04T03:49:17.321Z,99960.83
2022-08-04T03:50:48.249Z,99960.83
2022-08-04T03:52:30.215Z,99961.85
2022-08-04T03:53:43.081Z,99974.00
2022-08-04T03:54:53.082Z,99971.05
2022-08-04T03:56:05.950Z,99971.05
2022-08-04T03:57:32.307Z,99967.44
2022-08-04T03:59:13.806Z,99975.59
2022-08-04T04:00:23.603Z,99975.59
2022-08-04T04:02:06.600Z,99975.98
2022-08-04T04:03:13.629Z,99970.53
2022-08-04T04:04:36.846Z,99973.80
2022-08-04T04:06:05.175Z,99978.37
2022-08-04T04:07:36.743Z,99978.75
2022-08-04T04:08:52.130Z,99981.90
2022-08-04T04:10:12.920Z,99981.90
2022-08-04T04:11:54.456Z,99984.63
2022-08-04T04:13:23.386Z,99984.63
2022-08-04T04:14:39.746Z,99977.48
2022-08-04T04:16:04.460Z,99992.66
2022-08-04T04:17:30.835Z,99992.66
2022-08-04T04:18:40.678Z,99986.79
2022-08-04T04:20:19.778Z,99982.61
2022-08-04T04:21:37.335Z,99982.61
2022-08-04T04:22:44.042Z,99979.20
2022-08-04T04:24:02.882Z,99982.61
2022-08-04T04:25:24.626Z,99988.47
2022-08-04T04:26:49.209Z,99985.59
2022-08-04T04:28:44.953Z,99983.88
2022-08-04T04:29:39.298Z,99982.61
2022-08-04T04:31:05.688Z,99982.61
2022-08-04T04:32:24.341Z,99993.92
2022-08-04T04:34:02.952Z,99993.92
2022-08-04T04:35:18.973Z,99995.44
2022-08-04T04:36:35.232Z,99999.64
2022-08-04T04:37:49.891Z,99996.31
2022-08-04T04:38:59.795Z,99991.95
2022-08-04T04:40:51.619Z,100007.05
2022-08-04T04:42:06.897Z,99999.30
2022-08-04T04:43:51.071Z,99999.50
2022-08-04T04:44:56.965Z,99999.50
2022-08-04T04:46:21.076Z,100005.34
2022-08-04T04:48:09.532Z,100004.75
2022-08-04T04:49:12.622Z,100004.75
2022-08-04T04:50:41.178Z,100005.19
2022-08-04T05:03:50.670Z,100010.02
2022-08-04T05:05:21.626Z,100008.52
2022-08-04T05:06:54.342Z,100008.52
2022-08-04T05:08:43.945Z,100005.19
2022-08-04T05:09:53.447Z,99994.44
2022-08-04T05:11:07.251Z,99994.44
2022-08-04T05:13:20.434Z,100006.59
2022-08-04T05:14:36.805Z,100006.59
2022-08-04T05:15:01.584Z,99999.88
2022-08-04T05:16:21.028Z,100008.49
2022-08-04T05:20:16.149Z,99982.57
2022-08-04T05:21:34.867Z,99982.57
2022-08-04T05:22:54.870Z,100008.61
2022-08-04T05:24:29.180Z,100008.44
2022-08-04T05:27:31.108Z,100014.47
2022-08-04T05:28:45.224Z,100014.89
2022-08-04T05:29:53.901Z,100022.05
2022-08-04T05:34:07.762Z,100021.09
2022-08-04T05:35:15.452Z,100023.66
2022-08-04T05:36:40.134Z,100015.66
2022-08-04T05:37:32.848Z,100024.91
2022-08-04T05:38:39.602Z,100022.00
2022-08-04T05:39:52.540Z,100025.36
2022-08-04T05:40:57.419Z,100026.23
2022-08-04T05:42:04.518Z,100026.23
2022-08-04T05:43:11.702Z,100019.90
2022-08-04T05:44:18.249Z,100028.70
2022-08-04T05:45:24.468Z,100025.98
2022-08-04T05:46:29.712Z,100027.02
2022-08-04T05:47:35.326Z,100027.02
2022-08-04T05:48:40.882Z,100026.10
2022-08-04T05:49:45.935Z,100026.31
2022-08-04T05:50:54.027Z,100029.66
2022-08-04T05:52:04.031Z,100027.11
2022-08-04T05:53:12.836Z,100027.11
2022-08-04T05:54:19.014Z,100026.43
2022-08-04T05:55:57.488Z,100032.30
2022-08-04T05:56:33.946Z,100031.41
2022-08-04T05:57:41.058Z,100031.41
2022-08-04T05:58:46.186Z,100040.95
2022-08-04T05:59:52.424Z,100031.66
2022-08-04T06:00:59.280Z,100035.83
2022-08-04T06:02:05.540Z,100039.77
2022-08-04T06:03:12.351Z,100039.77
2022-08-04T06:04:19.399Z,100033.23
2022-08-04T06:05:25.015Z,100029.19
2022-08-04T06:06:32.122Z,100029.19
2022-08-04T06:07:36.186Z,100033.91
2022-08-04T06:08:42.046Z,100033.91
2022-08-04T06:09:46.293Z,100023.25
2022-08-04T06:10:51.219Z,100034.95
2022-08-04T06:12:03.844Z,100034.95
2022-08-04T06:13:08.869Z,100025.33
2022-08-04T06:14:16.079Z,100017.03
2022-08-04T06:15:25.323Z,100023.48
2022-08-04T06:16:34.867Z,100020.59
2022-08-04T06:18:35.063Z,100036.41
2022-08-04T06:20:04.056Z,100036.78
2022-08-04T06:20:22.887Z,100036.78
2022-08-04T06:21:27.593Z,100027.14
2022-08-04T06:23:53.706Z,100032.08
2022-08-04T06:24:55.614Z,100025.33
2022-08-04T06:25:56.813Z,100027.14
2022-08-04T06:26:01.863Z,100025.33
2022-08-04T06:27:10.094Z,100024.71
2022-08-04T06:28:15.947Z,100030.55
2022-08-04T06:29:22.143Z,100030.55
2022-08-04T06:30:28.575Z,100027.91
2022-08-04T06:32:28.201Z,100027.91
2022-08-04T06:32:44.744Z,100026.06
2022-08-04T06:33:54.366Z,100026.06
2022-08-04T06:35:04.497Z,100029.41
2022-08-04T06:36:14.551Z,100030.48
2022-08-04T06:38:46.598Z,100029.77
2022-08-04T06:41:00.081Z,100033.06
2022-08-04T06:41:04.559Z,100033.06
2022-08-04T06:42:21.774Z,100037.77
2022-08-04T06:43:14.918Z,100029.10
2022-08-04T06:44:27.917Z,100025.59
2022-08-04T06:45:33.952Z,100022.39
2022-08-04T06:46:40.753Z,100024.16
2022-08-04T06:47:46.439Z,100026.67
2022-08-04T06:48:54.185Z,100026.67
2022-08-04T06:51:27.841Z,100022.18
2022-08-04T06:51:30.950Z,100022.18
2022-08-04T06:52:15.669Z,100020.98
2022-08-04T06:53:23.214Z,100023.32
2022-08-04T06:54:29.283Z,100010.36
2022-08-04T06:56:42.654Z,100013.99
2022-08-04T06:57:13.484Z,100017.70
2022-08-04T06:57:47.698Z,100013.99
2022-08-04T06:58:53.661Z,100023.02
2022-08-04T07:00:09.813Z,100019.92
2022-08-04T07:02:27.664Z,100012.80
2022-08-04T07:03:33.782Z,100028.37
2022-08-04T07:04:34.873Z,100019.92
2022-08-04T07:04:39.578Z,100030.03
2022-08-04T07:05:46.834Z,100028.95
2022-08-04T07:06:52.606Z,100015.75
2022-08-04T07:08:04.249Z,100019.70
2022-08-04T07:09:10.496Z,100035.95
2022-08-04T07:10:18.047Z,100035.95
2022-08-04T07:11:25.667Z,100032.75
2022-08-04T07:12:32.756Z,100033.73
2022-08-04T07:14:36.250Z,100033.73
2022-08-04T07:14:55.748Z,100030.68
2022-08-04T07:16:02.250Z,100030.68
2022-08-04T07:17:08.444Z,100038.56
2022-08-04T07:18:12.626Z,100040.00
2022-08-04T07:19:21.403Z,100036.73
2022-08-04T07:20:34.023Z,100036.73
2022-08-04T07:21:33.818Z,100040.36
2022-08-04T07:22:41.700Z,100040.36
2022-08-04T07:23:46.615Z,100032.70
2022-08-04T07:24:53.661Z,100038.16
2022-08-04T07:26:12.666Z,100042.49
2022-08-04T07:27:06.634Z,100039.57
2022-08-04T07:28:13.547Z,100040.00
2022-08-04T07:29:18.201Z,100040.00
2022-08-04T07:30:32.611Z,100035.22
2022-08-04T07:31:34.408Z,100038.49
2022-08-04T07:32:40.672Z,100038.49
2022-08-04T07:35:07.483Z,100035.29
2022-08-04T07:36:11.778Z,100041.05
2022-08-04T07:37:15.975Z,100041.05
2022-08-04T07:38:20.102Z,100029.73
2022-08-04T07:39:29.562Z,100029.73
2022-08-04T07:40:35.475Z,100030.43
2022-08-04T07:41:43.288Z,100030.43
2022-08-04T07:42:52.133Z,100031.87
2022-08-04T07:43:56.425Z,100030.68
2022-08-04T07:45:00.812Z,100028.62
2022-08-04T07:46:05.577Z,100038.78
2022-08-04T07:47:10.774Z,100023.34
2022-08-04T07:48:14.919Z,100035.75
2022-08-04T07:49:55.037Z,100030.43
2022-08-04T07:50:29.877Z,100038.31
2022-08-04T07:51:43.668Z,100028.72
2022-08-04T07:53:03.505Z,100032.09
2022-08-04T07:53:54.264Z,100029.71
2022-08-04T07:55:02.358Z,100035.32
2022-08-04T07:56:07.019Z,100031.89
2022-08-04T07:57:19.416Z,100038.19
2022-08-04T07:58:19.972Z,100033.19
2022-08-04T07:59:25.505Z,100036.87
2022-08-04T08:00:30.060Z,100041.02
2022-08-04T08:01:37.153Z,100038.39
2022-08-04T08:02:46.462Z,100041.60
2022-08-04T08:03:53.210Z,100033.05
2022-08-04T08:04:57.797Z,100033.05
2022-08-04T08:06:18.036Z,100038.06
2022-08-04T08:07:07.845Z,100027.66
2022-08-04T08:08:43.897Z,100037.31
2022-08-04T08:09:38.413Z,100045.80
2022-08-04T08:10:47.715Z,100033.05
2022-08-04T08:12:38.605Z,100035.93
2022-08-04T08:13:02.852Z,100035.93
2022-08-04T08:14:07.462Z,100038.19
2022-08-04T08:15:15.937Z,100034.76
2022-08-04T08:16:20.054Z,100043.87
2022-08-04T08:17:24.281Z,100043.87
2022-08-04T08:18:30.040Z,100045.66
2022-08-04T08:19:36.697Z,100045.66
2022-08-04T08:20:53.374Z,100036.84
2022-08-04T08:21:59.231Z,100042.09
2022-08-04T08:23:04.297Z,100042.09
2022-08-04T08:24:12.616Z,100050.06
2022-08-04T08:25:14.498Z,100050.06
2022-08-04T08:26:21.664Z,100040.73
2022-08-04T08:27:27.572Z,100040.73
2022-08-04T08:28:32.771Z,100056.75
2022-08-04T08:29:38.225Z,100045.41
2022-08-04T08:30:42.548Z,100044.83
2022-08-04T08:32:07.413Z,100044.83
2022-08-04T08:32:57.158Z,100051.97
2022-08-04T08:34:02.055Z,100046.71
2022-08-04T08:35:24.233Z,99983.09
2022-08-04T08:36:28.064Z,100053.17
2022-08-04T08:37:35.479Z,100050.08
2022-08-04T08:38:57.481Z,100049.12
2022-08-04T08:40:39.981Z,100049.12
2022-08-04T08:42:03.221Z,100045.05
2022-08-04T08:44:06.395Z,100044.67
2022-08-04T08:44:58.078Z,100044.67
2022-08-04T08:46:14.102Z,100031.31
2022-08-04T08:48:05.974Z,100040.53
2022-08-04T08:49:11.362Z,100033.41
2022-08-04T08:50:24.676Z,100033.41
2022-08-04T08:52:09.954Z,100041.73
2022-08-04T08:53:17.583Z,100041.73
2022-08-04T08:54:39.559Z,100032.64
2022-08-04T08:55:55.197Z,100038.73
2022-08-04T08:57:24.652Z,100038.73
2022-08-04T08:58:43.461Z,100032.08
2022-08-04T09:00:11.150Z,100041.38
2022-08-04T09:01:33.262Z,100047.23
2022-08-04T09:03:07.060Z,100047.23
2022-08-04T09:04:40.870Z,100037.07
2022-08-04T09:06:12.030Z,100036.60
2022-08-04T09:07:34.167Z,100042.50
2022-08-04T09:08:56.860Z,100044.07
2022-08-04T09:10:10.615Z,100052.16
2022-08-04T09:11:20.361Z,100052.16
2022-08-04T09:12:45.921Z,100046.19
2022-08-04T09:13:58.349Z,100045.59
2022-08-04T09:15:14.437Z,100045.59
2022-08-04T09:16:36.547Z,100041.43
2022-08-04T09:17:50.671Z,100035.98
2022-08-04T09:19:01.228Z,100035.23
2022-08-04T09:20:29.557Z,100037.71
2022-08-04T09:21:43.830Z,100033.89
2022-08-04T09:22:53.866Z,100033.89
2022-08-04T09:24:36.730Z,100034.96
2022-08-04T09:26:11.871Z,100039.63
2022-08-04T09:26:45.369Z,100033.38
2022-08-04T09:28:09.357Z,100035.38
2022-08-04T09:29:38.497Z,100031.84
2022-08-04T09:30:45.499Z,100031.84
2022-08-04T09:32:06.818Z,100031.37
2022-08-04T09:33:44.223Z,100030.85
2022-08-04T09:35:04.605Z,100032.12
2022-08-04T09:36:09.332Z,100031.78
2022-08-04T09:37:19.668Z,100031.39
2022-08-04T09:38:29.593Z,100035.34
2022-08-04T09:40:02.087Z,100035.34
2022-08-04T09:41:48.694Z,100038.45
2022-08-04T09:42:50.486Z,100037.99
2022-08-04T09:44:52.324Z,100034.81
2022-08-04T09:45:42.661Z,100034.81
2022-08-04T09:46:59.672Z,100035.48
2022-08-04T09:48:09.716Z,100035.48
2022-08-04T09:49:25.250Z,100026.80
2022-08-04T09:50:50.304Z,100026.80
2022-08-04T09:52:11.617Z,100040.45
2022-08-04T09:53:40.914Z,100032.12
2022-08-04T09:54:55.215Z,100028.62
2022-08-04T09:56:35.402Z,100032.72
2022-08-04T09:58:00.007Z,100032.72
2022-08-04T09:59:35.424Z,100030.96
2022-08-04T10:00:50.685Z,100033.16
2022-08-04T10:02:01.923Z,100025.46
2022-08-04T10:03:10.439Z,100028.73
2022-08-04T10:04:18.226Z,100025.16
2022-08-04T10:05:32.916Z,100029.38
2022-08-04T10:07:03.575Z,100030.13
2022-08-04T10:08:31.526Z,100030.13
2022-08-04T10:10:13.552Z,100030.13
2022-08-04T10:12:53.529Z,100018.00
2022-08-04T10:13:05.781Z,100018.00
2022-08-04T10:14:10.282Z,100011.26
2022-08-04T10:15:33.438Z,100011.26
2022-08-04T10:16:56.847Z,100016.55
2022-08-04T10:18:32.493Z,100014.38
2022-08-04T10:19:41.350Z,100011.38
2022-08-04T10:20:54.125Z,100011.38
2022-08-04T10:23:10.450Z,100011.38
2022-08-04T10:26:02.862Z,100013.66
2022-08-04T10:26:53.210Z,100013.66
2022-08-04T10:28:08.430Z,100017.81
2022-08-04T10:29:19.256Z,100017.81
2022-08-04T10:30:28.311Z,100009.49
2022-08-04T10:31:36.429Z,100009.49
2022-08-04T10:32:52.310Z,100003.71
2022-08-04T10:34:19.019Z,100009.80
2022-08-04T10:35:26.983Z,100009.80
2022-08-04T10:36:45.124Z,99997.22
2022-08-04T10:38:05.047Z,100003.19
2022-08-04T10:39:43.557Z,100003.19
2022-08-04T10:40:28.692Z,100008.45
2022-08-04T10:41:44.882Z,100014.78
2022-08-04T10:43:00.776Z,100007.23
2022-08-04T10:44:30.503Z,100007.23
2022-08-04T10:45:58.004Z,100021.88
2022-08-04T10:47:07.144Z,100011.88
2022-08-04T10:48:34.685Z,100011.88
2022-08-04T10:49:35.663Z,100000.95
2022-08-04T10:50:44.326Z,100002.41
2022-08-04T10:51:58.294Z,100005.82
2022-08-04T10:53:01.454Z,100005.82
2022-08-04T10:54:08.526Z,99999.69
2022-08-04T10:55:21.642Z,100005.50
2022-08-04T10:56:40.726Z,99853.51
2022-08-04T10:57:52.063Z,100009.11
2022-08-04T10:58:59.138Z,100004.42
2022-08-04T11:00:09.255Z,99998.09
2022-08-04T11:01:50.826Z,100003.89
2022-08-04T11:03:21.442Z,100003.89
2022-08-04T11:03:54.209Z,100002.89
2022-08-04T11:05:19.389Z,99995.49
2022-08-04T11:06:25.742Z,99994.63
2022-08-04T11:07:34.355Z,100003.37
2022-08-04T11:08:46.868Z,100003.37
2022-08-04T11:09:52.309Z,99993.27
2022-08-04T11:11:15.744Z,99986.11
2022-08-04T11:12:25.566Z,99988.58
2022-08-04T11:13:47.087Z,99990.27
2022-08-04T11:15:02.029Z,99987.71
2022-08-04T11:16:09.162Z,99992.92
2022-08-04T11:17:22.064Z,99986.61
2022-08-04T11:18:37.117Z,99990.27
2022-08-04T11:20:18.238Z,99985.87
2022-08-04T11:21:07.259Z,99980.97
2022-08-04T11:22:17.169Z,99980.16
2022-08-04T11:23:24.175Z,99987.39
2022-08-04T11:24:52.145Z,99988.02
2022-08-04T11:26:18.330Z,99989.23
2022-08-04T11:27:26.898Z,99989.23
2022-08-04T11:29:03.310Z,99983.42
2022-08-04T11:30:07.451Z,99978.48
2022-08-04T11:31:14.333Z,99977.34
2022-08-04T11:32:29.797Z,99974.02
2022-08-04T11:33:46.176Z,99974.02
2022-08-04T11:34:53.282Z,99979.95
2022-08-04T11:36:01.860Z,99975.67
2022-08-04T11:37:28.757Z,99967.07
2022-08-04T11:38:50.931Z,99970.22
2022-08-04T11:40:03.533Z,99970.22
2022-08-04T11:41:12.142Z,99963.51
2022-08-04T11:42:24.135Z,99963.51
2022-08-04T11:44:00.799Z,99962.83
2022-08-04T11:44:56.505Z,99967.07
2022-08-04T11:46:06.279Z,99966.01
2022-08-04T11:47:13.870Z,99962.80
2022-08-04T11:48:26.554Z,99957.62
2022-08-04T11:49:56.054Z,99957.62
2022-08-04T11:50:53.069Z,99931.45
2022-08-04T11:51:57.871Z,99959.22
2022-08-04T11:53:09.606Z,99958.93
2022-08-04T11:54:13.566Z,99957.31
2022-08-04T11:55:21.417Z,99957.31
2022-08-04T11:56:36.999Z,99956.77
2022-08-04T11:59:11.315Z,99955.41
2022-08-04T11:59:55.178Z,99955.41
2022-08-04T12:01:30.512Z,99948.81
2022-08-04T12:02:44.758Z,99964.25
2022-08-04T12:04:04.860Z,99964.73
2022-08-04T12:05:36.548Z,99971.51
2022-08-04T12:07:21.331Z,99981.76
2022-08-04T12:10:04.637Z,99999.88
2022-08-04T12:14:10.412Z,100005.50
2022-08-04T12:15:27.725Z,100005.50
2022-08-04T12:16:45.406Z,99995.50
2022-08-04T12:17:52.447Z,100012.56
2022-08-04T12:18:17.822Z,99974.19
2022-08-04T12:19:26.132Z,99974.19
2022-08-04T12:20:41.013Z,99978.72
2022-08-04T12:21:50.573Z,99978.72
2022-08-04T12:22:59.319Z,99982.78
2022-08-04T12:25:40.904Z,99985.40
2022-08-04T12:26:47.167Z,99985.40
2022-08-04T12:28:00.032Z,99978.58
2022-08-04T12:29:10.133Z,99975.84
2022-08-04T12:30:59.071Z,99975.20
2022-08-04T12:31:41.869Z,99975.20
2022-08-04T12:32:53.550Z,99983.20
2022-08-04T12:34:11.485Z,99983.20
2022-08-04T12:36:10.375Z,99972.83
2022-08-04T12:37:06.204Z,99971.36
2022-08-04T12:38:14.465Z,99965.98
2022-08-04T12:39:24.433Z,99962.78
2022-08-04T12:40:31.362Z,99966.95
2022-08-04T12:41:41.320Z,99958.50
2022-08-04T12:42:59.591Z,99958.50
2022-08-04T12:44:02.011Z,99966.46
2022-08-04T12:45:09.110Z,99963.87
2022-08-04T12:46:25.767Z,99969.47
2022-08-04T12:47:38.842Z,99970.63
2022-08-04T12:48:44.541Z,99968.87
2022-08-04T12:49:53.225Z,99968.14
2022-08-04T12:51:03.059Z,99968.14
2022-08-04T12:52:09.598Z,99964.16
2022-08-04T12:53:31.335Z,99964.16
2022-08-04T12:54:29.642Z,99958.34
2022-08-04T12:55:34.336Z,99958.34
2022-08-04T12:56:40.447Z,99967.88
2022-08-04T12:57:46.213Z,99967.88
2022-08-04T12:58:53.283Z,99966.62
2022-08-04T12:59:58.205Z,99960.15
2022-08-04T13:02:07.511Z,99966.95
2022-08-04T13:02:28.474Z,99963.16
2022-08-04T13:03:38.513Z,99963.16
2022-08-04T13:04:51.528Z,99963.98
2022-08-04T13:05:55.407Z,99965.63
2022-08-04T13:07:08.282Z,99972.38
2022-08-04T13:08:14.136Z,99972.38
2022-08-04T13:09:23.419Z,99972.64
2022-08-04T13:10:31.528Z,99979.78
2022-08-04T13:11:38.738Z,99979.78
2022-08-04T13:12:46.797Z,99974.66
2022-08-04T13:14:24.502Z,99977.15
2022-08-04T13:15:21.890Z,99977.52
2022-08-04T13:16:34.608Z,99977.02
2022-08-04T13:17:46.771Z,99984.49
2022-08-04T13:18:58.092Z,99978.28
2022-08-04T13:20:03.923Z,99978.28
2022-08-04T13:21:20.381Z,99985.02
2022-08-04T13:22:28.472Z,99985.02
2022-08-04T13:24:09.273Z,99978.57
2022-08-04T13:24:56.901Z,99978.57
2022-08-04T13:26:44.794Z,99981.57
2022-08-04T13:27:04.249Z,99981.57
2022-08-04T13:28:21.375Z,99962.57
2022-08-04T13:29:57.804Z,99994.28
2022-08-04T13:30:50.850Z,99985.12
2022-08-04T13:31:57.314Z,99987.95
2022-08-04T13:33:06.441Z,99987.95
2022-08-04T13:34:32.464Z,99983.13
2022-08-04T13:36:33.344Z,99977.20
2022-08-04T13:37:02.256Z,99975.95
2022-08-04T13:38:13.222Z,99975.12
2022-08-04T13:39:23.697Z,99975.12
2022-08-04T13:40:33.203Z,99797.62
2022-08-04T13:41:42.563Z,99977.98
2022-08-04T13:42:50.965Z,99976.13
2022-08-04T13:44:19.554Z,99976.13
2022-08-04T13:45:11.875Z,99984.02
2022-08-04T13:46:28.820Z,99974.75
2022-08-04T13:47:42.977Z,99973.92
2022-08-04T13:49:08.896Z,99975.40
2022-08-04T13:50:24.095Z,99975.40
2022-08-04T13:51:57.379Z,99973.55
2022-08-04T13:52:43.079Z,99977.30
2022-08-04T13:55:00.108Z,99967.25
2022-08-04T13:56:18.590Z,99966.28
2022-08-04T13:57:10.084Z,99977.30
2022-08-04T13:57:25.328Z,99969.38
2022-08-04T13:58:40.837Z,99969.38
2022-08-04T14:00:32.187Z,99964.36
2022-08-04T14:01:52.602Z,99950.50
2022-08-04T14:02:13.600Z,99948.08
2022-08-04T14:03:27.984Z,99961.25
2022-08-04T14:04:35.409Z,99961.25
2022-08-04T14:05:59.305Z,99969.16
2022-08-04T14:06:52.746Z,99958.50
2022-08-04T14:08:02.611Z,99958.50
2022-08-04T14:09:21.281Z,99968.25
2022-08-04T14:10:30.145Z,99972.98
2022-08-04T14:12:09.412Z,99972.98
2022-08-04T14:12:49.202Z,99971.06
2022-08-04T14:13:54.730Z,99970.05
2022-08-04T14:14:59.975Z,99958.30
2022-08-04T14:16:07.003Z,99958.30
2022-08-04T14:17:20.218Z,99955.78
2022-08-04T14:18:25.994Z,99959.61
2022-08-04T14:20:03.251Z,99959.61
2022-08-04T14:21:12.350Z,99967.73
2022-08-04T14:22:29.606Z,99961.91
2022-08-04T14:23:51.924Z,99966.67
2022-08-04T14:25:15.616Z,99965.38
2022-08-04T14:26:32.414Z,99965.38
2022-08-04T14:27:35.901Z,99954.67
2022-08-04T14:29:25.239Z,99954.67
2022-08-04T14:29:47.408Z,99956.33
2022-08-04T14:30:51.999Z,99956.66
2022-08-04T14:32:05.946Z,99952.48
2022-08-04T14:34:03.797Z,99957.13
2022-08-04T14:34:37.795Z,99957.13
2022-08-04T14:35:49.165Z,99948.70
2022-08-04T14:37:04.614Z,99946.18
2022-08-04T14:37:55.414Z,99937.36
2022-08-04T14:39:02.092Z,99937.36
2022-08-04T14:40:19.072Z,99936.46
2022-08-04T14:41:18.776Z,99935.83
2022-08-04T14:43:30.890Z,99929.19
2022-08-04T14:43:56.373Z,99929.67